Hilliards, Pennsylvania
Current Conditions -  °F | °C
As of 9:55 PM on Tuesday 25 Nov 2014 (Local Time) from KFKL Reporting Station
Overcast Overcast  
Wind Chill: 30°   Ceiling: 2700
Heat Index: 34°   Visibility: 10mi
Dew Point: 21°   Wind: 5mph
Humidity: 60%   Direction: 300°WNW
Pressure: 30.18"   Gusts: NA
Location:  41.09°N, 79.83°W
Report Text: KFKL 260255Z AUTO 30004KT 10SM OVC027 01/M06 A3018 RMK AO1 52017
Loading
Personal Weather Stations






























Interactive Weather Map New forecast layout! Learn more

10-Day Weather Forecast

Advertisements
Track Severe Weather on mobile